Terminal Aerodrome Forecast
Issued by NWS

Home | Current Version | Previous Version | Text Only | Print | Product List | Glossary On
Versions: 1 2 3 4 5 6 7 8 9 10 11 12 13 14 15 16 17 18 19 20 21 22 23 24 25 26
378
FTUS43 KGRR 261121
TAFBTL
TAF
KBTL 261121Z 2612/2712 34012G18KT P6SM -RA OVC021
     FM261400 32012G22KT P6SM SCT120
     FM261800 31025G35KT P6SM FEW250
     FM270100 31015G25KT P6SM SKC
     FM270400 31010KT P6SM SKC=

USA.gov is the U.S. government's official web portal to all federal, state and local government web resources and services.